sensor_id;sensor_type;location;lat;lon;timestamp;P1;durP1;ratioP1;P2;durP2;ratioP2
18789;SDS011;9523;42.650;23.386;2022-09-12T00:01:58;5.07;;;3.73;;
18789;SDS011;9523;42.650;23.386;2022-09-12T00:04:25;5.97;;;3.83;;
18789;SDS011;9523;42.650;23.386;2022-09-12T00:06:54;5.27;;;4.03;;
18789;SDS011;9523;42.650;23.386;2022-09-12T00:09:21;4.13;;;3.73;;
18789;SDS011;9523;42.650;23.386;2022-09-12T00:11:48;4.70;;;3.60;;
18789;SDS011;9523;42.650;23.386;2022-09-12T00:14:17;4.10;;;3.50;;
18789;SDS011;9523;42.650;23.386;2022-09-12T00:16:44;4.70;;;3.70;;
18789;SDS011;9523;42.650;23.386;2022-09-12T00:19:13;3.87;;;3.20;;
18789;SDS011;9523;42.650;23.386;2022-09-12T00:21:40;5.57;;;4.63;;
18789;SDS011;9523;42.650;23.386;2022-09-12T00:24:07;5.13;;;4.13;;
18789;SDS011;9523;42.650;23.386;2022-09-12T00:26:35;5.63;;;4.10;;
18789;SDS011;9523;42.650;23.386;2022-09-12T00:29:02;5.43;;;4.37;;
18789;SDS011;9523;42.650;23.386;2022-09-12T00:31:32;4.77;;;4.03;;
18789;SDS011;9523;42.650;23.386;2022-09-12T00:33:59;5.67;;;4.80;;
18789;SDS011;9523;42.650;23.386;2022-09-12T00:36:28;6.37;;;4.40;;
18789;SDS011;9523;42.650;23.386;2022-09-12T00:38:55;4.70;;;3.93;;
18789;SDS011;9523;42.650;23.386;2022-09-12T00:41:26;4.63;;;3.50;;
18789;SDS011;9523;42.650;23.386;2022-09-12T00:43:56;7.50;;;4.30;;
18789;SDS011;9523;42.650;23.386;2022-09-12T00:46:29;5.53;;;4.17;;
18789;SDS011;9523;42.650;23.386;2022-09-12T00:49:04;6.37;;;4.27;;
18789;SDS011;9523;42.650;23.386;2022-09-12T00:51:38;5.13;;;4.00;;
18789;SDS011;9523;42.650;23.386;2022-09-12T00:54:09;4.97;;;3.43;;
18789;SDS011;9523;42.650;23.386;2022-09-12T00:56:40;4.83;;;4.17;;
18789;SDS011;9523;42.650;23.386;2022-09-12T00:59:10;5.13;;;4.23;;
18789;SDS011;9523;42.650;23.386;2022-09-12T01:01:39;6.33;;;4.73;;
18789;SDS011;9523;42.650;23.386;2022-09-12T01:04:08;5.23;;;4.33;;
18789;SDS011;9523;42.650;23.386;2022-09-12T01:06:39;4.97;;;4.40;;
18789;SDS011;9523;42.650;23.386;2022-09-12T01:09:08;4.50;;;3.63;;
18789;SDS011;9523;42.650;23.386;2022-09-12T01:11:39;5.07;;;3.70;;
18789;SDS011;9523;42.650;23.386;2022-09-12T01:14:10;4.83;;;4.10;;
18789;SDS011;9523;42.650;23.386;2022-09-12T01:16:37;4.70;;;4.03;;
18789;SDS011;9523;42.650;23.386;2022-09-12T01:19:11;5.13;;;3.70;;
18789;SDS011;9523;42.650;23.386;2022-09-12T01:22:03;5.77;;;3.13;;
18789;SDS011;9523;42.650;23.386;2022-09-12T01:24:51;5.10;;;3.30;;
18789;SDS011;9523;42.650;23.386;2022-09-12T01:30:43;4.17;;;3.60;;
18789;SDS011;9523;42.650;23.386;2022-09-12T01:33:19;4.17;;;3.53;;
18789;SDS011;9523;42.650;23.386;2022-09-12T01:36:03;4.07;;;3.03;;
18789;SDS011;9523;42.650;23.386;2022-09-12T01:38:53;3.70;;;3.17;;
18789;SDS011;9523;42.650;23.386;2022-09-12T01:41:25;3.47;;;3.07;;
18789;SDS011;9523;42.650;23.386;2022-09-12T01:43:59;5.43;;;3.50;;
18789;SDS011;9523;42.650;23.386;2022-09-12T01:46:33;3.63;;;3.23;;
18789;SDS011;9523;42.650;23.386;2022-09-12T01:49:08;4.77;;;3.07;;
18789;SDS011;9523;42.650;23.386;2022-09-12T01:51:41;3.97;;;3.37;;
18789;SDS011;9523;42.650;23.386;2022-09-12T01:54:15;3.73;;;2.77;;
18789;SDS011;9523;42.650;23.386;2022-09-12T01:56:48;4.60;;;3.57;;
18789;SDS011;9523;42.650;23.386;2022-09-12T01:59:19;3.33;;;2.93;;
18789;SDS011;9523;42.650;23.386;2022-09-12T02:01:52;3.63;;;3.00;;
18789;SDS011;9523;42.650;23.386;2022-09-12T02:04:26;3.10;;;2.63;;
18789;SDS011;9523;42.650;23.386;2022-09-12T02:06:57;3.87;;;2.80;;
18789;SDS011;9523;42.650;23.386;2022-09-12T02:09:28;3.80;;;2.87;;
18789;SDS011;9523;42.650;23.386;2022-09-12T02:12:02;3.43;;;2.53;;
18789;SDS011;9523;42.650;23.386;2022-09-12T02:14:33;4.37;;;2.70;;
18789;SDS011;9523;42.650;23.386;2022-09-12T02:17:05;2.77;;;2.57;;
18789;SDS011;9523;42.650;23.386;2022-09-12T02:19:35;4.37;;;2.63;;
18789;SDS011;9523;42.650;23.386;2022-09-12T02:22:06;3.20;;;2.90;;
18789;SDS011;9523;42.650;23.386;2022-09-12T02:24:40;3.73;;;3.20;;
18789;SDS011;9523;42.650;23.386;2022-09-12T02:27:13;4.60;;;3.47;;
18789;SDS011;9523;42.650;23.386;2022-09-12T02:29:42;5.43;;;3.73;;
18789;SDS011;9523;42.650;23.386;2022-09-12T02:32:14;3.70;;;3.17;;
18789;SDS011;9523;42.650;23.386;2022-09-12T02:34:51;4.23;;;3.00;;
18789;SDS011;9523;42.650;23.386;2022-09-12T02:37:29;6.03;;;3.40;;
18789;SDS011;9523;42.650;23.386;2022-09-12T02:40:02;4.70;;;2.83;;
18789;SDS011;9523;42.650;23.386;2022-09-12T02:42:31;3.57;;;2.90;;
18789;SDS011;9523;42.650;23.386;2022-09-12T02:44:58;5.00;;;2.83;;
18789;SDS011;9523;42.650;23.386;2022-09-12T02:47:30;3.20;;;2.90;;
18789;SDS011;9523;42.650;23.386;2022-09-12T02:50:03;3.17;;;2.87;;
18789;SDS011;9523;42.650;23.386;2022-09-12T02:52:32;3.37;;;2.80;;
18789;SDS011;9523;42.650;23.386;2022-09-12T02:55:00;3.07;;;2.67;;
18789;SDS011;9523;42.650;23.386;2022-09-12T02:57:29;3.37;;;2.70;;
18789;SDS011;9523;42.650;23.386;2022-09-12T02:59:59;3.43;;;2.53;;
18789;SDS011;9523;42.650;23.386;2022-09-12T03:02:31;4.60;;;3.03;;
18789;SDS011;9523;42.650;23.386;2022-09-12T03:05:10;3.27;;;2.83;;
18789;SDS011;9523;42.650;23.386;2022-09-12T03:07:53;3.67;;;2.60;;
18789;SDS011;9523;42.650;23.386;2022-09-12T03:10:32;2.77;;;2.30;;
18789;SDS011;9523;42.650;23.386;2022-09-12T03:13:09;3.40;;;2.97;;
18789;SDS011;9523;42.650;23.386;2022-09-12T03:15:48;3.97;;;2.87;;
18789;SDS011;9523;42.650;23.386;2022-09-12T03:18:28;3.43;;;2.87;;
18789;SDS011;9523;42.650;23.386;2022-09-12T03:21:06;3.23;;;2.90;;
18789;SDS011;9523;42.650;23.386;2022-09-12T03:23:39;4.23;;;3.47;;
18789;SDS011;9523;42.650;23.386;2022-09-12T03:26:11;3.17;;;2.87;;
18789;SDS011;9523;42.650;23.386;2022-09-12T03:28:44;5.73;;;3.50;;
18789;SDS011;9523;42.650;23.386;2022-09-12T03:31:14;3.80;;;3.13;;
18789;SDS011;9523;42.650;23.386;2022-09-12T03:33:44;3.70;;;3.20;;
18789;SDS011;9523;42.650;23.386;2022-09-12T03:36:14;4.50;;;3.67;;
18789;SDS011;9523;42.650;23.386;2022-09-12T03:38:44;3.87;;;3.27;;
18789;SDS011;9523;42.650;23.386;2022-09-12T03:41:12;4.50;;;3.33;;
18789;SDS011;9523;42.650;23.386;2022-09-12T03:43:39;4.20;;;3.43;;
18789;SDS011;9523;42.650;23.386;2022-09-12T03:46:05;3.00;;;2.60;;
18789;SDS011;9523;42.650;23.386;2022-09-12T03:48:33;3.87;;;3.20;;
18789;SDS011;9523;42.650;23.386;2022-09-12T03:51:01;5.73;;;3.30;;
18789;SDS011;9523;42.650;23.386;2022-09-12T03:53:30;4.30;;;3.17;;
18789;SDS011;9523;42.650;23.386;2022-09-12T03:56:04;3.53;;;3.17;;
18789;SDS011;9523;42.650;23.386;2022-09-12T03:58:32;5.07;;;3.40;;
18789;SDS011;9523;42.650;23.386;2022-09-12T04:01:05;4.20;;;3.30;;
18789;SDS011;9523;42.650;23.386;2022-09-12T04:03:36;3.90;;;3.30;;
18789;SDS011;9523;42.650;23.386;2022-09-12T04:06:08;4.83;;;3.10;;
18789;SDS011;9523;42.650;23.386;2022-09-12T04:08:38;4.83;;;3.37;;
18789;SDS011;9523;42.650;23.386;2022-09-12T04:11:05;4.10;;;3.23;;
18789;SDS011;9523;42.650;23.386;2022-09-12T04:13:33;5.27;;;3.57;;
18789;SDS011;9523;42.650;23.386;2022-09-12T04:16:01;3.83;;;3.03;;
18789;SDS011;9523;42.650;23.386;2022-09-12T04:18:29;3.97;;;2.90;;
18789;SDS011;9523;42.650;23.386;2022-09-12T04:20:56;4.33;;;3.40;;
18789;SDS011;9523;42.650;23.386;2022-09-12T04:23:25;3.27;;;2.97;;
18789;SDS011;9523;42.650;23.386;2022-09-12T04:25:52;5.03;;;3.20;;
18789;SDS011;9523;42.650;23.386;2022-09-12T04:28:19;4.13;;;3.27;;
18789;SDS011;9523;42.650;23.386;2022-09-12T04:30:49;3.87;;;3.40;;
18789;SDS011;9523;42.650;23.386;2022-09-12T04:33:16;6.17;;;3.70;;
18789;SDS011;9523;42.650;23.386;2022-09-12T04:35:43;4.20;;;3.53;;
18789;SDS011;9523;42.650;23.386;2022-09-12T04:38:10;4.27;;;3.37;;
18789;SDS011;9523;42.650;23.386;2022-09-12T04:40:39;4.03;;;3.63;;
18789;SDS011;9523;42.650;23.386;2022-09-12T04:43:06;5.93;;;3.93;;
18789;SDS011;9523;42.650;23.386;2022-09-12T04:45:33;4.53;;;3.63;;
18789;SDS011;9523;42.650;23.386;2022-09-12T04:48:01;4.23;;;3.73;;
18789;SDS011;9523;42.650;23.386;2022-09-12T04:50:28;4.70;;;3.83;;
18789;SDS011;9523;42.650;23.386;2022-09-12T04:52:55;4.80;;;4.03;;
18789;SDS011;9523;42.650;23.386;2022-09-12T04:55:24;4.93;;;4.03;;
18789;SDS011;9523;42.650;23.386;2022-09-12T04:57:53;5.77;;;3.47;;
18789;SDS011;9523;42.650;23.386;2022-09-12T05:00:22;6.60;;;5.07;;
18789;SDS011;9523;42.650;23.386;2022-09-12T05:02:49;6.53;;;4.53;;
18789;SDS011;9523;42.650;23.386;2022-09-12T05:05:15;5.30;;;3.87;;
18789;SDS011;9523;42.650;23.386;2022-09-12T05:07:42;6.37;;;4.33;;
18789;SDS011;9523;42.650;23.386;2022-09-12T05:10:13;6.67;;;4.17;;
18789;SDS011;9523;42.650;23.386;2022-09-12T05:12:40;6.00;;;4.60;;
18789;SDS011;9523;42.650;23.386;2022-09-12T05:15:09;6.67;;;4.20;;
18789;SDS011;9523;42.650;23.386;2022-09-12T05:17:36;5.90;;;4.90;;
18789;SDS011;9523;42.650;23.386;2022-09-12T05:20:03;6.20;;;4.30;;
18789;SDS011;9523;42.650;23.386;2022-09-12T05:22:36;10.73;;;6.00;;
18789;SDS011;9523;42.650;23.386;2022-09-12T05:25:04;4.90;;;3.90;;
18789;SDS011;9523;42.650;23.386;2022-09-12T05:27:32;5.20;;;3.13;;
18789;SDS011;9523;42.650;23.386;2022-09-12T05:30:01;6.47;;;4.07;;
18789;SDS011;9523;42.650;23.386;2022-09-12T05:32:31;4.77;;;4.27;;
18789;SDS011;9523;42.650;23.386;2022-09-12T05:34:58;5.33;;;3.77;;
18789;SDS011;9523;42.650;23.386;2022-09-12T05:37:27;4.83;;;3.33;;
18789;SDS011;9523;42.650;23.386;2022-09-12T05:39:57;3.93;;;3.40;;
18789;SDS011;9523;42.650;23.386;2022-09-12T05:42:24;4.60;;;3.30;;
18789;SDS011;9523;42.650;23.386;2022-09-12T05:44:51;5.47;;;3.30;;
18789;SDS011;9523;42.650;23.386;2022-09-12T05:47:21;5.33;;;3.70;;
18789;SDS011;9523;42.650;23.386;2022-09-12T05:49:50;4.77;;;3.37;;
18789;SDS011;9523;42.650;23.386;2022-09-12T05:52:18;5.67;;;3.97;;
18789;SDS011;9523;42.650;23.386;2022-09-12T05:54:46;6.07;;;3.97;;
18789;SDS011;9523;42.650;23.386;2022-09-12T05:57:13;4.50;;;3.80;;
18789;SDS011;9523;42.650;23.386;2022-09-12T05:59:40;5.57;;;3.87;;
18789;SDS011;9523;42.650;23.386;2022-09-12T06:02:08;4.27;;;3.47;;
18789;SDS011;9523;42.650;23.386;2022-09-12T06:04:38;4.50;;;3.47;;
18789;SDS011;9523;42.650;23.386;2022-09-12T06:07:07;5.67;;;3.80;;
18789;SDS011;9523;42.650;23.386;2022-09-12T06:09:34;4.40;;;3.83;;
18789;SDS011;9523;42.650;23.386;2022-09-12T06:12:01;5.10;;;4.10;;
18789;SDS011;9523;42.650;23.386;2022-09-12T06:14:29;3.40;;;3.10;;
18789;SDS011;9523;42.650;23.386;2022-09-12T06:16:57;4.63;;;3.83;;
18789;SDS011;9523;42.650;23.386;2022-09-12T06:19:24;6.73;;;4.20;;
18789;SDS011;9523;42.650;23.386;2022-09-12T06:21:52;4.33;;;3.60;;
18789;SDS011;9523;42.650;23.386;2022-09-12T06:24:21;4.63;;;4.00;;
18789;SDS011;9523;42.650;23.386;2022-09-12T06:26:48;4.07;;;3.67;;
18789;SDS011;9523;42.650;23.386;2022-09-12T06:29:16;4.47;;;4.00;;
18789;SDS011;9523;42.650;23.386;2022-09-12T06:31:46;4.83;;;4.03;;
18789;SDS011;9523;42.650;23.386;2022-09-12T06:34:16;5.07;;;3.87;;
18789;SDS011;9523;42.650;23.386;2022-09-12T06:36:46;4.73;;;3.33;;
18789;SDS011;9523;42.650;23.386;2022-09-12T06:39:14;4.67;;;3.77;;
18789;SDS011;9523;42.650;23.386;2022-09-12T06:41:44;4.80;;;4.10;;
18789;SDS011;9523;42.650;23.386;2022-09-12T06:44:13;5.13;;;4.23;;
18789;SDS011;9523;42.650;23.386;2022-09-12T06:46:42;4.67;;;4.17;;
18789;SDS011;9523;42.650;23.386;2022-09-12T06:49:09;5.17;;;4.20;;
18789;SDS011;9523;42.650;23.386;2022-09-12T06:51:37;5.40;;;4.40;;
18789;SDS011;9523;42.650;23.386;2022-09-12T06:54:07;5.60;;;3.93;;
18789;SDS011;9523;42.650;23.386;2022-09-12T06:56:35;4.77;;;4.20;;
18789;SDS011;9523;42.650;23.386;2022-09-12T06:59:03;5.50;;;4.33;;
18789;SDS011;9523;42.650;23.386;2022-09-12T07:01:30;5.50;;;4.20;;
18789;SDS011;9523;42.650;23.386;2022-09-12T07:03:58;5.07;;;4.10;;
18789;SDS011;9523;42.650;23.386;2022-09-12T07:06:27;5.90;;;5.27;;
18789;SDS011;9523;42.650;23.386;2022-09-12T07:08:56;4.67;;;4.17;;
18789;SDS011;9523;42.650;23.386;2022-09-12T07:11:24;5.00;;;3.77;;
18789;SDS011;9523;42.650;23.386;2022-09-12T07:13:53;4.70;;;3.70;;
18789;SDS011;9523;42.650;23.386;2022-09-12T07:16:23;5.20;;;4.70;;
18789;SDS011;9523;42.650;23.386;2022-09-12T07:18:50;4.60;;;4.10;;
18789;SDS011;9523;42.650;23.386;2022-09-12T07:21:19;5.00;;;4.50;;
18789;SDS011;9523;42.650;23.386;2022-09-12T07:23:46;4.53;;;3.97;;
18789;SDS011;9523;42.650;23.386;2022-09-12T07:26:16;4.50;;;3.60;;
18789;SDS011;9523;42.650;23.386;2022-09-12T07:28:44;4.00;;;3.60;;
18789;SDS011;9523;42.650;23.386;2022-09-12T07:31:17;4.67;;;3.77;;
18789;SDS011;9523;42.650;23.386;2022-09-12T07:33:46;4.90;;;4.27;;
18789;SDS011;9523;42.650;23.386;2022-09-12T07:36:15;4.30;;;3.90;;
18789;SDS011;9523;42.650;23.386;2022-09-12T07:38:46;4.17;;;3.77;;
18789;SDS011;9523;42.650;23.386;2022-09-12T07:41:19;4.40;;;4.00;;
18789;SDS011;9523;42.650;23.386;2022-09-12T07:43:50;4.80;;;4.07;;
18789;SDS011;9523;42.650;23.386;2022-09-12T07:46:21;5.77;;;4.47;;
18789;SDS011;9523;42.650;23.386;2022-09-12T07:48:50;5.90;;;4.50;;
18789;SDS011;9523;42.650;23.386;2022-09-12T07:51:21;6.37;;;4.53;;
18789;SDS011;9523;42.650;23.386;2022-09-12T07:53:50;4.77;;;4.27;;
18789;SDS011;9523;42.650;23.386;2022-09-12T07:56:20;5.13;;;4.20;;
18789;SDS011;9523;42.650;23.386;2022-09-12T07:59:02;5.03;;;3.80;;
18789;SDS011;9523;42.650;23.386;2022-09-12T08:01:29;4.17;;;3.50;;
18789;SDS011;9523;42.650;23.386;2022-09-12T08:03:58;4.90;;;4.40;;
18789;SDS011;9523;42.650;23.386;2022-09-12T08:06:30;4.60;;;4.03;;
18789;SDS011;9523;42.650;23.386;2022-09-12T08:09:06;6.77;;;4.20;;
18789;SDS011;9523;42.650;23.386;2022-09-12T08:11:37;5.13;;;3.70;;
18789;SDS011;9523;42.650;23.386;2022-09-12T08:14:06;5.43;;;4.17;;
18789;SDS011;9523;42.650;23.386;2022-09-12T08:16:36;4.43;;;3.70;;
18789;SDS011;9523;42.650;23.386;2022-09-12T08:19:05;4.10;;;3.70;;
18789;SDS011;9523;42.650;23.386;2022-09-12T08:21:35;5.57;;;3.27;;
18789;SDS011;9523;42.650;23.386;2022-09-12T08:24:30;5.30;;;4.50;;
18789;SDS011;9523;42.650;23.386;2022-09-12T08:26:57;4.13;;;3.50;;
18789;SDS011;9523;42.650;23.386;2022-09-12T08:29:26;4.77;;;3.60;;
18789;SDS011;9523;42.650;23.386;2022-09-12T08:31:53;3.57;;;3.13;;
18789;SDS011;9523;42.650;23.386;2022-09-12T08:34:21;3.30;;;3.00;;
18789;SDS011;9523;42.650;23.386;2022-09-12T08:36:48;3.53;;;3.20;;
18789;SDS011;9523;42.650;23.386;2022-09-12T08:39:18;4.00;;;3.40;;
18789;SDS011;9523;42.650;23.386;2022-09-12T08:41:47;3.40;;;3.07;;
18789;SDS011;9523;42.650;23.386;2022-09-12T08:44:26;3.00;;;2.70;;
18789;SDS011;9523;42.650;23.386;2022-09-12T08:47:14;2.97;;;2.67;;
18789;SDS011;9523;42.650;23.386;2022-09-12T08:49:49;3.47;;;2.30;;
18789;SDS011;9523;42.650;23.386;2022-09-12T08:52:23;3.03;;;2.73;;
18789;SDS011;9523;42.650;23.386;2022-09-12T08:54:57;9.80;;;6.10;;
18789;SDS011;9523;42.650;23.386;2022-09-12T08:57:26;4.47;;;2.50;;
18789;SDS011;9523;42.650;23.386;2022-09-12T08:59:53;3.63;;;3.33;;
18789;SDS011;9523;42.650;23.386;2022-09-12T09:02:34;3.60;;;2.80;;
18789;SDS011;9523;42.650;23.386;2022-09-12T09:05:22;2.93;;;2.60;;
18789;SDS011;9523;42.650;23.386;2022-09-12T09:08:02;3.47;;;2.93;;
18789;SDS011;9523;42.650;23.386;2022-09-12T09:11:01;3.20;;;2.73;;
18789;SDS011;9523;42.650;23.386;2022-09-12T09:13:44;3.90;;;3.47;;
18789;SDS011;9523;42.650;23.386;2022-09-12T09:16:37;5.13;;;2.77;;
18789;SDS011;9523;42.650;23.386;2022-09-12T09:19:09;2.85;;;2.65;;
18789;SDS011;9523;42.650;23.386;2022-09-12T09:21:43;3.55;;;3.17;;
18789;SDS011;9523;42.650;23.386;2022-09-12T09:24:17;2.90;;;2.37;;
18789;SDS011;9523;42.650;23.386;2022-09-12T09:26:53;3.30;;;3.00;;
18789;SDS011;9523;42.650;23.386;2022-09-12T09:29:28;3.50;;;3.20;;
18789;SDS011;9523;42.650;23.386;2022-09-12T09:32:02;3.15;;;2.80;;
18789;SDS011;9523;42.650;23.386;2022-09-12T09:34:38;4.22;;;3.03;;
18789;SDS011;9523;42.650;23.386;2022-09-12T09:37:12;2.92;;;2.63;;
18789;SDS011;9523;42.650;23.386;2022-09-12T09:39:47;3.83;;;3.30;;
18789;SDS011;9523;42.650;23.386;2022-09-12T09:42:26;3.47;;;3.17;;
18789;SDS011;9523;42.650;23.386;2022-09-12T09:45:10;3.75;;;3.08;;
18789;SDS011;9523;42.650;23.386;2022-09-12T09:47:41;3.58;;;3.15;;
18789;SDS011;9523;42.650;23.386;2022-09-12T09:50:11;3.08;;;2.78;;
18789;SDS011;9523;42.650;23.386;2022-09-12T09:52:43;2.83;;;2.63;;
18789;SDS011;9523;42.650;23.386;2022-09-12T09:55:12;5.60;;;2.50;;
18789;SDS011;9523;42.650;23.386;2022-09-12T09:57:43;2.63;;;2.42;;
18789;SDS011;9523;42.650;23.386;2022-09-12T10:00:28;2.80;;;2.60;;
18789;SDS011;9523;42.650;23.386;2022-09-12T10:03:00;3.30;;;3.00;;
18789;SDS011;9523;42.650;23.386;2022-09-12T10:05:31;3.67;;;3.33;;
18789;SDS011;9523;42.650;23.386;2022-09-12T10:08:03;4.05;;;3.65;;
18789;SDS011;9523;42.650;23.386;2022-09-12T10:10:33;4.20;;;3.20;;
18789;SDS011;9523;42.650;23.386;2022-09-12T10:13:20;3.10;;;2.90;;
18789;SDS011;9523;42.650;23.386;2022-09-12T10:15:56;3.60;;;3.22;;
18789;SDS011;9523;42.650;23.386;2022-09-12T10:21:20;3.92;;;3.38;;
18789;SDS011;9523;42.650;23.386;2022-09-12T10:24:05;3.63;;;2.63;;
18789;SDS011;9523;42.650;23.386;2022-09-12T10:26:45;2.97;;;2.70;;
18789;SDS011;9523;42.650;23.386;2022-09-12T10:29:15;3.50;;;3.20;;
18789;SDS011;9523;42.650;23.386;2022-09-12T10:31:48;3.75;;;3.33;;
18789;SDS011;9523;42.650;23.386;2022-09-12T10:34:28;4.97;;;3.13;;
18789;SDS011;9523;42.650;23.386;2022-09-12T10:36:58;3.30;;;2.90;;
18789;SDS011;9523;42.650;23.386;2022-09-12T10:39:29;4.63;;;3.50;;
18789;SDS011;9523;42.650;23.386;2022-09-12T10:41:58;3.55;;;3.25;;
18789;SDS011;9523;42.650;23.386;2022-09-12T10:44:26;3.97;;;3.53;;
18789;SDS011;9523;42.650;23.386;2022-09-12T10:46:56;4.35;;;3.95;;
18789;SDS011;9523;42.650;23.386;2022-09-12T10:49:26;4.07;;;3.60;;
18789;SDS011;9523;42.650;23.386;2022-09-12T10:51:55;3.00;;;2.78;;
18789;SDS011;9523;42.650;23.386;2022-09-12T10:54:25;3.42;;;3.08;;
18789;SDS011;9523;42.650;23.386;2022-09-12T10:57:08;3.10;;;2.75;;
18789;SDS011;9523;42.650;23.386;2022-09-12T10:59:57;2.08;;;1.95;;
18789;SDS011;9523;42.650;23.386;2022-09-12T11:02:39;3.47;;;2.78;;
18789;SDS011;9523;42.650;23.386;2022-09-12T11:05:17;4.55;;;2.80;;
18789;SDS011;9523;42.650;23.386;2022-09-12T11:07:57;3.45;;;2.83;;
18789;SDS011;9523;42.650;23.386;2022-09-12T11:10:33;2.95;;;2.65;;
18789;SDS011;9523;42.650;23.386;2022-09-12T11:13:14;3.85;;;3.47;;
18789;SDS011;9523;42.650;23.386;2022-09-12T11:15:53;3.60;;;3.30;;
18789;SDS011;9523;42.650;23.386;2022-09-12T11:18:36;3.88;;;3.25;;
18789;SDS011;9523;42.650;23.386;2022-09-12T11:21:18;3.78;;;3.30;;
18789;SDS011;9523;42.650;23.386;2022-09-12T11:24:03;3.83;;;3.45;;
18789;SDS011;9523;42.650;23.386;2022-09-12T11:27:00;4.03;;;3.60;;
18789;SDS011;9523;42.650;23.386;2022-09-12T11:29:43;2.90;;;2.65;;
18789;SDS011;9523;42.650;23.386;2022-09-12T11:35:21;3.30;;;3.00;;
18789;SDS011;9523;42.650;23.386;2022-09-12T11:37:57;2.70;;;2.45;;
18789;SDS011;9523;42.650;23.386;2022-09-12T11:40:36;3.00;;;2.38;;
18789;SDS011;9523;42.650;23.386;2022-09-12T11:43:20;3.17;;;2.88;;
18789;SDS011;9523;42.650;23.386;2022-09-12T11:45:52;3.95;;;3.45;;
18789;SDS011;9523;42.650;23.386;2022-09-12T11:48:28;3.08;;;2.72;;
18789;SDS011;9523;42.650;23.386;2022-09-12T11:51:06;4.05;;;3.28;;
18789;SDS011;9523;42.650;23.386;2022-09-12T11:53:44;3.38;;;3.08;;
18789;SDS011;9523;42.650;23.386;2022-09-12T11:56:24;5.25;;;3.90;;
18789;SDS011;9523;42.650;23.386;2022-09-12T11:58:54;4.10;;;3.38;;
18789;SDS011;9523;42.650;23.386;2022-09-12T12:01:29;3.42;;;3.13;;
18789;SDS011;9523;42.650;23.386;2022-09-12T12:04:00;3.45;;;3.15;;
18789;SDS011;9523;42.650;23.386;2022-09-12T12:06:47;4.07;;;3.40;;
18789;SDS011;9523;42.650;23.386;2022-09-12T12:09:16;3.55;;;3.00;;
18789;SDS011;9523;42.650;23.386;2022-09-12T12:11:47;2.90;;;2.47;;
18789;SDS011;9523;42.650;23.386;2022-09-12T12:14:18;5.28;;;4.78;;
18789;SDS011;9523;42.650;23.386;2022-09-12T12:16:50;2.63;;;2.30;;
18789;SDS011;9523;42.650;23.386;2022-09-12T12:19:27;2.97;;;2.67;;
18789;SDS011;9523;42.650;23.386;2022-09-12T12:22:05;3.10;;;2.75;;
18789;SDS011;9523;42.650;23.386;2022-09-12T12:24:34;3.03;;;2.40;;
18789;SDS011;9523;42.650;23.386;2022-09-12T12:27:50;4.85;;;2.47;;
18789;SDS011;9523;42.650;23.386;2022-09-12T12:36:33;3.42;;;2.50;;
18789;SDS011;9523;42.650;23.386;2022-09-12T12:42:09;2.80;;;2.20;;
18789;SDS011;9523;42.650;23.386;2022-09-12T12:45:09;2.55;;;2.35;;
18789;SDS011;9523;42.650;23.386;2022-09-12T12:48:13;2.60;;;2.40;;
18789;SDS011;9523;42.650;23.386;2022-09-12T12:50:43;2.38;;;2.17;;
18789;SDS011;9523;42.650;23.386;2022-09-12T12:53:15;3.42;;;2.47;;
18789;SDS011;9523;42.650;23.386;2022-09-12T12:55:45;1.95;;;1.80;;
18789;SDS011;9523;42.650;23.386;2022-09-12T12:58:24;2.60;;;2.40;;
18789;SDS011;9523;42.650;23.386;2022-09-12T13:01:04;3.05;;;2.65;;
18789;SDS011;9523;42.650;23.386;2022-09-12T13:03:38;3.00;;;2.80;;
18789;SDS011;9523;42.650;23.386;2022-09-12T13:06:20;2.70;;;2.50;;
18789;SDS011;9523;42.650;23.386;2022-09-12T13:08:57;2.60;;;2.40;;
18789;SDS011;9523;42.650;23.386;2022-09-12T13:11:28;2.20;;;2.10;;
18789;SDS011;9523;42.650;23.386;2022-09-12T13:14:02;3.97;;;2.42;;
18789;SDS011;9523;42.650;23.386;2022-09-12T13:16:31;2.50;;;2.30;;
18789;SDS011;9523;42.650;23.386;2022-09-12T13:21:54;3.78;;;2.90;;
18789;SDS011;9523;42.650;23.386;2022-09-12T13:24:22;2.70;;;2.50;;
18789;SDS011;9523;42.650;23.386;2022-09-12T13:26:50;2.95;;;2.75;;
18789;SDS011;9523;42.650;23.386;2022-09-12T13:29:18;2.65;;;2.45;;
18789;SDS011;9523;42.650;23.386;2022-09-12T13:31:50;2.80;;;2.33;;
18789;SDS011;9523;42.650;23.386;2022-09-12T13:34:21;2.95;;;2.75;;
18789;SDS011;9523;42.650;23.386;2022-09-12T13:36:53;3.28;;;3.08;;
18789;SDS011;9523;42.650;23.386;2022-09-12T13:39:38;3.10;;;2.90;;
18789;SDS011;9523;42.650;23.386;2022-09-12T13:45:04;4.28;;;3.00;;
18789;SDS011;9523;42.650;23.386;2022-09-12T13:47:36;2.97;;;2.75;;
18789;SDS011;9523;42.650;23.386;2022-09-12T13:50:06;4.13;;;2.80;;
18789;SDS011;9523;42.650;23.386;2022-09-12T13:52:41;3.70;;;3.33;;
18789;SDS011;9523;42.650;23.386;2022-09-12T13:55:17;6.00;;;3.60;;
18789;SDS011;9523;42.650;23.386;2022-09-12T13:57:57;4.25;;;3.63;;
18789;SDS011;9523;42.650;23.386;2022-09-12T14:00:25;3.13;;;2.83;;
18789;SDS011;9523;42.650;23.386;2022-09-12T14:02:56;3.72;;;3.42;;
18789;SDS011;9523;42.650;23.386;2022-09-12T14:05:43;3.83;;;3.50;;
18789;SDS011;9523;42.650;23.386;2022-09-12T14:08:14;3.80;;;3.50;;
18789;SDS011;9523;42.650;23.386;2022-09-12T14:10:42;3.75;;;3.45;;
18789;SDS011;9523;42.650;23.386;2022-09-12T14:13:12;4.30;;;3.90;;
18789;SDS011;9523;42.650;23.386;2022-09-12T14:15:44;3.78;;;3.40;;
18789;SDS011;9523;42.650;23.386;2022-09-12T14:18:20;4.47;;;4.05;;
18789;SDS011;9523;42.650;23.386;2022-09-12T14:20:49;4.40;;;4.00;;
18789;SDS011;9523;42.650;23.386;2022-09-12T14:23:25;4.32;;;3.92;;
18789;SDS011;9523;42.650;23.386;2022-09-12T14:25:54;4.20;;;3.80;;
18789;SDS011;9523;42.650;23.386;2022-09-12T14:28:24;3.90;;;3.60;;
18789;SDS011;9523;42.650;23.386;2022-09-12T14:30:58;4.47;;;4.07;;
18789;SDS011;9523;42.650;23.386;2022-09-12T14:33:31;4.93;;;3.97;;
18789;SDS011;9523;42.650;23.386;2022-09-12T14:36:06;3.75;;;3.45;;
18789;SDS011;9523;42.650;23.386;2022-09-12T14:38:41;4.10;;;3.70;;
18789;SDS011;9523;42.650;23.386;2022-09-12T14:41:10;5.78;;;3.80;;
18789;SDS011;9523;42.650;23.386;2022-09-12T14:43:46;3.65;;;3.35;;
18789;SDS011;9523;42.650;23.386;2022-09-12T14:46:18;4.80;;;4.30;;
18789;SDS011;9523;42.650;23.386;2022-09-12T14:48:50;5.33;;;4.10;;
18789;SDS011;9523;42.650;23.386;2022-09-12T14:51:20;6.37;;;5.30;;
18789;SDS011;9523;42.650;23.386;2022-09-12T14:53:51;4.63;;;3.90;;
18789;SDS011;9523;42.650;23.386;2022-09-12T14:56:20;4.10;;;3.80;;
18789;SDS011;9523;42.650;23.386;2022-09-12T14:58:48;3.60;;;3.30;;
18789;SDS011;9523;42.650;23.386;2022-09-12T15:01:24;4.63;;;4.22;;
18789;SDS011;9523;42.650;23.386;2022-09-12T15:03:55;4.25;;;3.72;;
18789;SDS011;9523;42.650;23.386;2022-09-12T15:06:23;4.13;;;3.72;;
18789;SDS011;9523;42.650;23.386;2022-09-12T15:08:58;4.50;;;4.10;;
18789;SDS011;9523;42.650;23.386;2022-09-12T15:11:28;4.93;;;4.00;;
18789;SDS011;9523;42.650;23.386;2022-09-12T15:14:05;5.25;;;4.65;;
18789;SDS011;9523;42.650;23.386;2022-09-12T15:16:32;5.60;;;4.65;;
18789;SDS011;9523;42.650;23.386;2022-09-12T15:18:59;3.67;;;3.38;;
18789;SDS011;9523;42.650;23.386;2022-09-12T15:21:26;4.18;;;3.75;;
18789;SDS011;9523;42.650;23.386;2022-09-12T15:23:58;3.65;;;3.35;;
18789;SDS011;9523;42.650;23.386;2022-09-12T15:26:26;4.45;;;4.05;;
18789;SDS011;9523;42.650;23.386;2022-09-12T15:28:55;5.83;;;5.23;;
18789;SDS011;9523;42.650;23.386;2022-09-12T15:31:23;3.80;;;3.40;;
18789;SDS011;9523;42.650;23.386;2022-09-12T15:33:52;3.90;;;3.50;;
18789;SDS011;9523;42.650;23.386;2022-09-12T15:36:20;4.63;;;4.23;;
18789;SDS011;9523;42.650;23.386;2022-09-12T15:38:50;4.27;;;3.87;;
18789;SDS011;9523;42.650;23.386;2022-09-12T15:41:19;5.23;;;3.53;;
18789;SDS011;9523;42.650;23.386;2022-09-12T15:43:48;5.33;;;4.73;;